Time;durP1;ratioP1;P1;durP2;ratioP2;P2;SDS_P1;SDS_P2;PMS_P1;PMS_P2;Temp;Humidity;BMP_temperature;BMP_pressure;BME280_temperature;BME280_humidity;BME280_pressure;Samples;Min_cycle;Max_cycle;Signal;HPM_P1;HPM_P2
2022/09/28 00:01:16;;;;;;;0.88;0.73;;;10.10;99.90;;;;;;5034221;28;20207;-81
2022/09/28 00:03:47;;;;;;;0.55;0.50;;;10.10;99.90;;;;;;5033896;28;20214;-81
2022/09/28 00:06:18;;;;;;;0.57;0.57;;;10.00;99.90;;;;;;5034119;28;20314;-81
2022/09/28 00:08:48;;;;;;;0.63;0.40;;;10.00;99.90;;;;;;5033778;28;20210;-81
2022/09/28 00:11:19;;;;;;;0.60;0.60;;;10.00;99.90;;;;;;5033764;28;20214;-81
2022/09/28 00:13:51;;;;;;;0.47;0.47;;;10.00;99.90;;;;;;5033982;28;20214;-81
2022/09/28 00:16:24;;;;;;;0.60;0.60;;;10.00;99.90;;;;;;5033642;28;20277;-80
2022/09/28 00:18:54;;;;;;;0.40;0.40;;;10.00;99.90;;;;;;5033496;28;20202;-82
2022/09/28 00:21:25;;;;;;;0.55;0.55;;;10.00;99.90;;;;;;5033626;28;20206;-81
2022/09/28 00:24:13;;;;;;;0.40;0.40;;;9.90;99.90;;;;;;5033080;28;20249;-81
2022/09/28 00:26:45;;;;;;;0.60;0.60;;;9.90;99.90;;;;;;5033427;28;20321;-81
2022/09/28 00:29:17;;;;;;;0.43;0.43;;;9.80;99.90;;;;;;5033388;28;20221;-81
2022/09/28 00:31:46;;;;;;;2.20;0.63;;;9.80;99.90;;;;;;5033485;28;20210;-82
2022/09/28 00:34:16;;;;;;;0.35;0.28;;;9.80;99.90;;;;;;5033623;28;20211;-81
2022/09/28 00:36:46;;;;;;;0.70;0.70;;;9.70;99.90;;;;;;5033205;28;20234;-81
2022/09/28 00:39:15;;;;;;;0.60;0.60;;;9.70;99.90;;;;;;5033169;28;20214;-82
2022/09/28 00:41:45;;;;;;;0.73;0.73;;;9.70;99.90;;;;;;5033428;28;20203;-81
2022/09/28 00:44:36;;;;;;;0.65;0.65;;;9.70;99.90;;;;;;5033106;28;20222;-81
2022/09/28 00:47:16;;;;;;;0.65;0.65;;;9.60;99.90;;;;;;5032870;28;20214;-81
2022/09/28 00:49:52;;;;;;;0.50;0.50;;;9.60;99.90;;;;;;5032925;28;20229;-81
2022/09/28 00:52:24;;;;;;;0.60;0.60;;;9.50;99.90;;;;;;5033341;28;20225;-81
2022/09/28 00:54:54;;;;;;;0.50;0.50;;;9.50;99.90;;;;;;5032756;28;20218;-81
2022/09/28 00:57:23;;;;;;;1.00;0.95;;;9.50;99.90;;;;;;5032843;28;20202;-81
2022/09/28 00:59:52;;;;;;;0.60;0.60;;;9.50;99.90;;;;;;5032837;28;20206;-82
2022/09/28 01:02:20;;;;;;;0.95;0.95;;;9.40;99.90;;;;;;5033073;28;20203;-81
2022/09/28 01:04:51;;;;;;;0.40;0.40;;;9.40;99.90;;;;;;5032751;28;20237;-81
2022/09/28 01:07:21;;;;;;;0.52;0.52;;;9.40;99.90;;;;;;5033063;28;20218;-82
2022/09/28 01:09:52;;;;;;;0.80;0.80;;;9.40;99.90;;;;;;5032489;28;20222;-81
2022/09/28 01:12:21;;;;;;;0.38;0.38;;;9.40;99.90;;;;;;5032814;28;20209;-81
2022/09/28 01:14:50;;;;;;;0.50;0.50;;;9.40;99.90;;;;;;5032884;28;20222;-80
2022/09/28 01:17:26;;;;;;;0.65;0.65;;;9.40;99.90;;;;;;5024551;28;20210;-81
2022/09/28 01:20:25;;;;;;;0.60;0.60;;;9.40;99.90;;;;;;5032816;28;20206;-81
2022/09/28 01:23:18;;;;;;;0.95;0.95;;;9.40;99.90;;;;;;5032467;28;20210;-81
2022/09/28 01:25:54;;;;;;;0.82;0.80;;;9.40;99.90;;;;;;5001087;28;20238;-81
2022/09/28 01:28:27;;;;;;;0.75;0.75;;;9.40;99.90;;;;;;5032577;28;20206;-81
2022/09/28 01:31:06;;;;;;;0.70;0.70;;;9.40;99.90;;;;;;5032519;28;20213;-81
2022/09/28 01:33:38;;;;;;;0.60;0.60;;;9.40;99.90;;;;;;5032318;28;20209;-82
2022/09/28 01:36:11;;;;;;;1.27;0.95;;;9.50;99.90;;;;;;5032359;28;20233;-80
2022/09/28 01:38:44;;;;;;;1.45;0.70;;;9.50;99.90;;;;;;5032242;28;20206;-81
2022/09/28 01:41:16;;;;;;;0.52;0.52;;;9.60;99.90;;;;;;5032152;28;20218;-81
2022/09/28 01:43:49;;;;;;;0.30;0.30;;;9.60;99.90;;;;;;5032571;28;20230;-81
2022/09/28 01:46:21;;;;;;;0.25;0.25;;;9.70;99.90;;;;;;5032341;28;20226;-81
2022/09/28 01:48:54;;;;;;;0.73;0.73;;;9.80;99.90;;;;;;5032233;28;20198;-81
2022/09/28 01:51:39;;;;;;;0.90;0.63;;;9.80;99.90;;;;;;5032981;28;20214;-81
2022/09/28 01:54:12;;;;;;;0.70;0.70;;;9.80;99.90;;;;;;5036469;28;20202;-81
2022/09/28 01:56:45;;;;;;;0.98;0.73;;;9.80;99.90;;;;;;5036177;28;20245;-81
2022/09/28 01:59:19;;;;;;;0.50;0.45;;;9.80;99.90;;;;;;5036166;28;20210;-81
2022/09/28 02:01:53;;;;;;;0.28;0.28;;;9.70;99.90;;;;;;5036492;28;20211;-80
2022/09/28 02:04:27;;;;;;;0.28;0.28;;;9.70;99.90;;;;;;5036014;28;20294;-83
2022/09/28 02:06:58;;;;;;;0.35;0.35;;;9.70;99.90;;;;;;5035971;28;20212;-83
2022/09/28 02:09:32;;;;;;;0.43;0.43;;;9.70;99.90;;;;;;5036046;28;20210;-81
2022/09/28 02:12:06;;;;;;;1.92;0.90;;;9.70;99.90;;;;;;5036190;28;20233;-81
2022/09/28 02:14:40;;;;;;;0.30;0.30;;;9.60;99.90;;;;;;5036316;28;20218;-81
2022/09/28 02:17:10;;;;;;;0.55;0.55;;;9.60;99.90;;;;;;5036245;28;20206;-81
2022/09/28 02:19:40;;;;;;;0.32;0.32;;;9.60;99.90;;;;;;5035860;28;20202;-81
2022/09/28 02:22:22;;;;;;;1.65;1.20;;;9.50;99.90;;;;;;5035874;28;20209;-82
2022/09/28 02:24:57;;;;;;;1.48;0.60;;;9.50;99.90;;;;;;5035555;28;20234;-81
2022/09/28 02:27:34;;;;;;;0.63;0.63;;;9.50;99.90;;;;;;5036050;28;20214;-81
2022/09/28 02:30:06;;;;;;;0.55;0.55;;;9.50;99.90;;;;;;5035848;28;20217;-81
2022/09/28 02:32:39;;;;;;;0.30;0.30;;;9.50;99.90;;;;;;5035683;28;20202;-80
2022/09/28 02:35:08;;;;;;;0.40;0.40;;;9.60;99.90;;;;;;5035576;28;20233;-81
2022/09/28 02:37:37;;;;;;;0.65;0.65;;;9.60;99.90;;;;;;5035653;28;20229;-81
2022/09/28 02:40:13;;;;;;;0.57;0.57;;;9.60;99.90;;;;;;5035352;28;20206;-81
2022/09/28 02:42:52;;;;;;;0.60;0.60;;;9.60;99.90;;;;;;5035194;28;20206;-80
2022/09/28 02:45:36;;;;;;;0.75;0.70;;;9.60;99.90;;;;;;5035302;28;20233;-81
2022/09/28 02:48:16;;;;;;;0.95;0.68;;;9.70;99.90;;;;;;5035239;28;20209;-80
2022/09/28 02:51:03;;;;;;;3.60;0.95;;;9.70;99.90;;;;;;5035502;28;20213;-81
2022/09/28 02:53:47;;;;;;;0.85;0.70;;;9.70;99.90;;;;;;5035342;28;20210;-81
2022/09/28 02:56:29;;;;;;;0.60;0.60;;;9.70;99.90;;;;;;5035197;28;20226;-81
2022/09/28 02:59:07;;;;;;;0.52;0.52;;;9.70;99.90;;;;;;5035107;28;20203;-80
2022/09/28 03:01:49;;;;;;;0.75;0.68;;;9.70;99.90;;;;;;5035176;28;20214;-81
2022/09/28 03:04:27;;;;;;;0.65;0.65;;;9.70;99.90;;;;;;5035221;28;20313;-81
2022/09/28 03:07:01;;;;;;;0.93;0.93;;;9.70;99.90;;;;;;5035196;28;20224;-81
2022/09/28 03:09:35;;;;;;;0.70;0.70;;;9.80;99.90;;;;;;5034944;28;20221;-80
2022/09/28 03:12:08;;;;;;;0.52;0.52;;;9.70;99.90;;;;;;5034793;28;20212;-80
2022/09/28 03:14:37;;;;;;;1.40;0.55;;;9.70;99.90;;;;;;5034708;28;20209;-80
2022/09/28 03:17:06;;;;;;;0.80;0.77;;;9.70;99.90;;;;;;5035143;28;20202;-80
2022/09/28 03:19:35;;;;;;;0.60;0.60;;;9.70;99.90;;;;;;5034838;28;20221;-80
2022/09/28 03:22:04;;;;;;;0.65;0.65;;;9.70;99.90;;;;;;5034750;28;20206;-81
2022/09/28 03:24:32;;;;;;;0.88;0.60;;;9.70;99.90;;;;;;5034348;28;20234;-80
2022/09/28 03:27:00;;;;;;;0.38;0.38;;;9.70;99.90;;;;;;5034594;28;20213;-81
2022/09/28 03:29:31;;;;;;;0.32;0.32;;;9.70;99.90;;;;;;5034712;28;20213;-81
2022/09/28 03:31:59;;;;;;;0.57;0.57;;;9.70;99.90;;;;;;5034644;28;20210;-80
2022/09/28 03:34:29;;;;;;;0.35;0.35;;;9.70;99.90;;;;;;5034601;28;20213;-80
2022/09/28 03:36:57;;;;;;;0.50;0.50;;;9.70;99.90;;;;;;5034211;28;20212;-81
2022/09/28 03:39:25;;;;;;;0.70;0.60;;;9.70;99.90;;;;;;5034354;28;20210;-80
2022/09/28 03:41:54;;;;;;;0.30;0.30;;;9.70;99.90;;;;;;5034451;28;20210;-81
2022/09/28 03:44:22;;;;;;;0.70;0.70;;;9.70;99.90;;;;;;5034498;28;20210;-81
2022/09/28 03:46:50;;;;;;;0.60;0.60;;;9.80;99.90;;;;;;5034710;28;20238;-81
2022/09/28 03:49:18;;;;;;;0.38;0.38;;;9.80;99.90;;;;;;5033993;28;20322;-80
2022/09/28 03:51:48;;;;;;;0.52;0.30;;;9.80;99.90;;;;;;5033966;28;20202;-80
2022/09/28 03:54:17;;;;;;;1.08;0.85;;;9.80;99.90;;;;;;5034110;28;20214;-80
2022/09/28 03:56:45;;;;;;;4.68;0.75;;;9.90;99.90;;;;;;5034226;28;20226;-80
2022/09/28 03:59:14;;;;;;;0.50;0.40;;;9.90;99.90;;;;;;5034076;28;20214;-80
2022/09/28 04:01:42;;;;;;;0.30;0.30;;;10.00;99.90;;;;;;5033572;28;20238;-81
2022/09/28 04:04:11;;;;;;;0.43;0.43;;;10.00;99.90;;;;;;5034083;28;20241;-81
2022/09/28 04:06:40;;;;;;;0.30;0.30;;;10.10;99.90;;;;;;5033380;28;20265;-81
2022/09/28 04:09:10;;;;;;;0.40;0.40;;;10.10;99.90;;;;;;5033941;28;20210;-81
2022/09/28 04:11:38;;;;;;;0.20;0.20;;;10.10;99.90;;;;;;5033887;28;20210;-81
2022/09/28 04:14:27;;;;;;;0.50;0.50;;;10.20;99.90;;;;;;5033254;28;20233;-81
2022/09/28 04:16:55;;;;;;;0.60;0.60;;;10.10;99.90;;;;;;5033807;28;20213;-81
2022/09/28 04:19:24;;;;;;;0.80;0.50;;;10.00;99.90;;;;;;5033329;28;20306;-81
2022/09/28 04:21:52;;;;;;;0.90;0.80;;;9.90;99.90;;;;;;5033917;28;20207;-81
2022/09/28 04:24:21;;;;;;;1.38;0.90;;;9.80;99.90;;;;;;5033697;28;20217;-80
2022/09/28 04:26:50;;;;;;;1.80;0.80;;;9.70;99.90;;;;;;5033246;28;20241;-81
2022/09/28 04:29:17;;;;;;;0.65;0.65;;;9.50;99.90;;;;;;5033469;28;20210;-80
2022/09/28 04:31:48;;;;;;;1.02;0.90;;;9.40;99.90;;;;;;5033385;28;20209;-81
2022/09/28 04:34:18;;;;;;;1.00;0.90;;;9.40;99.90;;;;;;5033376;28;20202;-80
2022/09/28 04:36:47;;;;;;;0.85;0.68;;;9.30;99.90;;;;;;5033647;28;20222;-81
2022/09/28 04:39:17;;;;;;;1.45;1.00;;;9.30;99.90;;;;;;5033137;28;20209;-81
2022/09/28 04:41:49;;;;;;;0.55;0.55;;;9.30;99.90;;;;;;5033214;28;20215;-81
2022/09/28 04:44:17;;;;;;;0.55;0.55;;;9.20;99.90;;;;;;5033158;28;20222;-81
2022/09/28 04:46:46;;;;;;;0.75;0.75;;;9.30;99.90;;;;;;5032873;28;20237;-81
2022/09/28 04:49:14;;;;;;;1.65;0.80;;;9.30;99.90;;;;;;5032915;28;20301;-81
2022/09/28 04:51:43;;;;;;;0.70;0.70;;;9.30;99.90;;;;;;5033460;28;20206;-81
2022/09/28 04:54:11;;;;;;;0.50;0.50;;;9.30;99.90;;;;;;5033196;28;20209;-81
2022/09/28 04:56:40;;;;;;;0.45;0.45;;;9.30;99.90;;;;;;5032853;28;20229;-81
2022/09/28 04:59:11;;;;;;;3.30;0.77;;;9.40;99.90;;;;;;5032619;28;20272;-81
2022/09/28 05:01:40;;;;;;;0.77;0.70;;;9.50;99.90;;;;;;5033240;28;20202;-81
2022/09/28 05:04:08;;;;;;;0.75;0.75;;;9.50;99.90;;;;;;5033336;28;20206;-81
2022/09/28 05:06:36;;;;;;;0.80;0.80;;;9.50;99.90;;;;;;5032955;28;20226;-81
2022/09/28 05:09:06;;;;;;;1.23;1.13;;;9.50;99.90;;;;;;5032690;28;20289;-81
2022/09/28 05:11:34;;;;;;;1.63;1.23;;;9.50;99.90;;;;;;5032691;28;20387;-81
2022/09/28 05:14:02;;;;;;;1.20;1.10;;;9.50;99.90;;;;;;5032939;28;20209;-81
2022/09/28 05:16:33;;;;;;;1.63;1.52;;;9.50;99.90;;;;;;5032888;28;20305;-81
2022/09/28 05:19:01;;;;;;;2.40;2.30;;;9.50;99.90;;;;;;5032582;28;20357;-80
2022/09/28 05:21:29;;;;;;;2.65;2.33;;;9.60;99.90;;;;;;5030123;28;20210;-81
2022/09/28 05:23:57;;;;;;;4.80;2.05;;;9.60;99.90;;;;;;5030526;28;20214;-81
2022/09/28 05:26:26;;;;;;;1.70;1.60;;;9.60;99.90;;;;;;5029220;28;20237;-80
2022/09/28 05:28:54;;;;;;;1.50;1.40;;;9.60;99.90;;;;;;5030071;28;20211;-81
2022/09/28 05:31:22;;;;;;;1.25;1.15;;;9.60;99.90;;;;;;5030606;28;20216;-80
2022/09/28 05:33:52;;;;;;;1.58;1.33;;;9.60;99.90;;;;;;5030306;28;20309;-80
2022/09/28 05:36:21;;;;;;;1.77;1.35;;;9.60;99.90;;;;;;5029998;28;20233;-80
2022/09/28 05:38:49;;;;;;;1.30;1.20;;;9.60;99.90;;;;;;5029801;28;20213;-81
2022/09/28 05:41:17;;;;;;;1.35;1.23;;;9.70;99.90;;;;;;5030055;28;20210;-81
2022/09/28 05:43:45;;;;;;;1.33;1.23;;;9.70;99.90;;;;;;5030321;28;20217;-81
2022/09/28 05:46:14;;;;;;;1.67;1.25;;;9.70;99.90;;;;;;5029915;28;20226;-82
2022/09/28 05:48:42;;;;;;;1.85;1.33;;;9.70;99.90;;;;;;5029888;28;20214;-82
2022/09/28 05:51:14;;;;;;;1.65;1.55;;;9.70;99.90;;;;;;5030338;28;20225;-81
2022/09/28 05:53:42;;;;;;;3.65;1.52;;;9.70;99.90;;;;;;5030268;28;20215;-81
2022/09/28 05:56:10;;;;;;;2.42;1.30;;;9.80;99.90;;;;;;5030374;28;20230;-81
2022/09/28 05:58:38;;;;;;;1.88;1.15;;;9.70;99.90;;;;;;5030028;28;20217;-81
2022/09/28 06:01:07;;;;;;;1.30;1.20;;;9.80;99.90;;;;;;5030195;28;20206;-81
2022/09/28 06:03:35;;;;;;;1.08;1.05;;;9.80;99.90;;;;;;5029962;28;20268;-81
2022/09/28 06:06:09;;;;;;;1.17;0.93;;;9.80;99.90;;;;;;5029756;28;20241;-81
2022/09/28 06:09:10;;;;;;;0.90;0.90;;;9.80;99.90;;;;;;5029179;28;20216;-81
2022/09/28 06:14:37;;;;;;;0.82;0.82;;;9.90;99.90;;;;;;5028569;28;20209;-81
2022/09/28 06:17:06;;;;;;;1.00;1.00;;;10.00;99.90;;;;;;5029426;28;20245;-80
2022/09/28 06:19:34;;;;;;;0.95;0.95;;;9.90;99.90;;;;;;5029417;28;20207;-80
2022/09/28 06:22:02;;;;;;;1.70;1.08;;;10.00;99.90;;;;;;5030086;28;20232;-80
2022/09/28 06:24:33;;;;;;;1.50;1.10;;;10.00;99.90;;;;;;5029824;28;20211;-82
2022/09/28 06:27:01;;;;;;;2.10;1.35;;;10.00;99.90;;;;;;5029168;28;20241;-79
2022/09/28 06:29:30;;;;;;;1.40;1.30;;;10.10;99.90;;;;;;5029335;28;20225;-80
2022/09/28 06:31:58;;;;;;;1.08;1.02;;;10.20;99.90;;;;;;5029743;28;20215;-80
2022/09/28 06:34:26;;;;;;;2.03;1.50;;;10.20;99.90;;;;;;5029876;28;20214;-80
2022/09/28 06:36:54;;;;;;;3.28;1.60;;;10.20;99.90;;;;;;5029712;28;20217;-80
2022/09/28 06:39:23;;;;;;;2.05;1.52;;;10.30;99.90;;;;;;5032542;28;20221;-80
2022/09/28 06:41:52;;;;;;;1.33;1.23;;;10.20;99.90;;;;;;5033015;28;20214;-80
2022/09/28 06:44:20;;;;;;;3.60;1.42;;;10.20;99.90;;;;;;5033082;28;20218;-80
2022/09/28 06:46:49;;;;;;;3.28;1.85;;;10.20;99.90;;;;;;5032862;28;20252;-81
2022/09/28 06:49:18;;;;;;;1.50;1.20;;;10.30;99.90;;;;;;5033089;28;20226;-80
2022/09/28 06:52:10;;;;;;;1.98;1.45;;;10.30;99.90;;;;;;5032651;28;20214;-80
2022/09/28 06:54:42;;;;;;;0.93;0.82;;;10.30;99.90;;;;;;5032492;28;20203;-80
2022/09/28 06:57:13;;;;;;;0.95;0.95;;;10.40;99.90;;;;;;5032146;28;20264;-80
2022/09/28 06:59:44;;;;;;;1.05;1.05;;;10.40;99.90;;;;;;5031723;28;20217;-80
2022/09/28 07:02:13;;;;;;;1.65;1.50;;;10.40;99.90;;;;;;5032844;28;20206;-81
2022/09/28 07:04:45;;;;;;;1.48;1.35;;;10.50;99.90;;;;;;5033130;28;20218;-80
2022/09/28 07:07:17;;;;;;;1.10;1.10;;;10.50;99.90;;;;;;5035092;28;20230;-81
2022/09/28 07:09:46;;;;;;;1.15;1.15;;;10.50;99.90;;;;;;5035194;28;20203;-82
2022/09/28 07:12:25;;;;;;;1.40;1.30;;;10.60;99.90;;;;;;5034618;28;20210;-81
2022/09/28 07:14:57;;;;;;;1.40;1.30;;;10.60;99.90;;;;;;5035317;28;20231;-81
2022/09/28 07:17:25;;;;;;;1.35;1.25;;;10.60;99.90;;;;;;5035166;28;20209;-80
2022/09/28 07:19:56;;;;;;;1.45;1.35;;;10.70;99.90;;;;;;5034443;28;20209;-81
2022/09/28 07:22:29;;;;;;;1.50;1.40;;;10.80;99.90;;;;;;5034718;28;20229;-80
2022/09/28 07:25:11;;;;;;;2.17;1.40;;;10.80;99.90;;;;;;5034531;28;20234;-80
2022/09/28 07:27:56;;;;;;;1.40;1.30;;;10.90;99.90;;;;;;5034659;28;20222;-81
2022/09/28 07:30:25;;;;;;;1.10;1.10;;;10.90;99.90;;;;;;5034497;28;20220;-81
2022/09/28 07:32:54;;;;;;;1.30;1.20;;;11.10;99.90;;;;;;5034682;28;20237;-81
2022/09/28 07:35:23;;;;;;;2.65;2.28;;;11.10;99.90;;;;;;5034642;28;20233;-81
2022/09/28 07:37:59;;;;;;;1.45;1.35;;;11.20;99.90;;;;;;5034388;28;20207;-81
2022/09/28 07:43:19;;;;;;;1.60;1.48;;;11.40;99.90;;;;;;5035054;28;20213;-80
2022/09/28 07:45:48;;;;;;;2.97;1.52;;;11.40;99.90;;;;;;5034565;28;20234;-81
2022/09/28 07:48:20;;;;;;;1.92;1.70;;;11.60;99.90;;;;;;5034039;28;20290;-80
2022/09/28 07:50:51;;;;;;;1.67;1.58;;;11.70;99.90;;;;;;5033772;28;20221;-81
2022/09/28 07:53:19;;;;;;;1.45;1.23;;;11.80;99.90;;;;;;5034294;28;20210;-81
2022/09/28 07:56:07;;;;;;;2.22;1.60;;;12.00;99.90;;;;;;5034691;28;20233;-80
2022/09/28 07:58:48;;;;;;;1.42;1.33;;;12.20;99.90;;;;;;5034034;28;20264;-80
2022/09/28 08:01:24;;;;;;;1.45;1.35;;;12.40;99.90;;;;;;5034151;28;20264;-80
2022/09/28 08:03:55;;;;;;;1.27;1.17;;;12.50;99.90;;;;;;5033872;28;20210;-80
2022/09/28 08:06:24;;;;;;;1.90;1.38;;;12.70;99.90;;;;;;5034211;28;20227;-80
2022/09/28 08:08:55;;;;;;;1.38;1.27;;;12.90;99.90;;;;;;5033790;28;20229;-80
2022/09/28 08:14:46;;;;;;;1.50;1.40;;;13.40;99.90;;;;;;5033941;28;20209;-81
2022/09/28 08:17:39;;;;;;;3.25;1.60;;;13.70;99.90;;;;;;5030770;28;20230;-80
2022/09/28 08:23:02;;;;;;;1.60;1.50;;;14.30;99.90;;;;;;5033986;28;20237;-80
2022/09/28 08:25:30;;;;;;;1.95;1.55;;;14.60;99.90;;;;;;5033640;28;20245;-80
2022/09/28 08:27:58;;;;;;;1.67;1.58;;;14.60;99.90;;;;;;5033481;28;20218;-80
2022/09/28 08:30:30;;;;;;;1.45;1.35;;;14.60;99.90;;;;;;5033300;28;20218;-80
2022/09/28 08:33:00;;;;;;;3.65;2.03;;;14.60;99.90;;;;;;5033189;28;20266;-81
2022/09/28 08:35:28;;;;;;;1.77;1.67;;;14.80;99.90;;;;;;5033499;28;20236;-80
2022/09/28 08:37:56;;;;;;;1.77;1.67;;;14.90;99.90;;;;;;5033361;28;20209;-80
2022/09/28 08:40:25;;;;;;;1.65;1.55;;;15.00;99.90;;;;;;5033311;28;20214;-81
2022/09/28 08:43:03;;;;;;;2.05;1.83;;;15.20;99.90;;;;;;5033067;28;20214;-80
2022/09/28 08:45:34;;;;;;;1.77;1.67;;;15.50;99.90;;;;;;5033362;28;20253;-82
2022/09/28 08:48:53;;;;;;;3.47;1.90;;;15.90;99.90;;;;;;5110809;27;20563;-80
2022/09/28 08:51:57;;;;;;;1.35;1.35;;;16.30;99.90;;;;;;5110735;28;20210;-81
2022/09/28 08:54:37;;;;;;;1.20;1.20;;;16.40;99.90;;;;;;5110441;28;20215;-81
2022/09/28 08:57:12;;;;;;;1.40;1.33;;;16.80;99.90;;;;;;5090039;28;20204;-81
2022/09/28 08:59:48;;;;;;;1.55;1.48;;;17.40;99.90;;;;;;5089444;28;20211;-81
2022/09/28 09:02:24;;;;;;;1.60;1.50;;;18.20;99.90;;;;;;5090043;28;20215;-81
2022/09/28 09:04:56;;;;;;;1.65;1.55;;;18.70;99.90;;;;;;5089785;28;20292;-81
2022/09/28 09:07:56;;;;;;;9.25;2.05;;;18.50;99.90;;;;;;5089729;28;20221;-80
2022/09/28 09:10:51;;;;;;;1.80;1.70;;;18.50;99.90;;;;;;5088510;28;20205;-80
2022/09/28 09:14:01;;;;;;;2.58;2.38;;;18.20;99.90;;;;;;5089604;28;20239;-81
2022/09/28 09:16:37;;;;;;;1.70;1.60;;;18.30;99.90;;;;;;5085178;28;20227;-81
2022/09/28 09:19:16;;;;;;;1.83;1.73;;;18.70;99.90;;;;;;5089532;28;20215;-81
2022/09/28 09:21:54;;;;;;;2.05;1.80;;;19.10;99.90;;;;;;5089686;28;20196;-81
2022/09/28 09:24:28;;;;;;;1.13;1.13;;;19.20;99.90;;;;;;5089421;28;20212;-81
2022/09/28 09:27:05;;;;;;;1.30;1.20;;;18.90;99.90;;;;;;5097219;22;20229;-80
2022/09/28 09:29:48;;;;;;;1.05;1.05;;;18.60;99.90;;;;;;5089387;28;20205;-81
2022/09/28 09:32:33;;;;;;;1.00;1.00;;;18.50;99.90;;;;;;5089687;28;20266;-81
2022/09/28 09:35:22;;;;;;;2.30;1.45;;;18.10;99.90;;;;;;5089269;28;20252;-80
2022/09/28 09:38:20;;;;;;;2.42;1.33;;;18.00;99.90;;;;;;5089494;28;20197;-81
2022/09/28 09:41:03;;;;;;;1.23;1.23;;;18.00;99.90;;;;;;5088931;28;20201;-81
2022/09/28 09:43:49;;;;;;;1.20;1.10;;;17.80;99.90;;;;;;5089563;28;20207;-81
2022/09/28 09:46:22;;;;;;;0.90;0.90;;;17.60;99.90;;;;;;5089137;28;20232;-81
2022/09/28 09:48:53;;;;;;;1.20;1.20;;;17.60;99.90;;;;;;5089016;28;20208;-80
2022/09/28 09:51:37;;;;;;;3.53;1.52;;;17.70;99.90;;;;;;5089041;28;20208;-80
2022/09/28 09:54:16;;;;;;;1.00;0.90;;;17.90;99.90;;;;;;5088842;28;20208;-81
2022/09/28 09:56:50;;;;;;;1.13;1.02;;;17.80;99.90;;;;;;5089203;28;20217;-80
2022/09/28 09:59:23;;;;;;;1.42;1.13;;;17.70;99.90;;;;;;5077145;28;20287;-81
2022/09/28 10:01:54;;;;;;;1.80;1.30;;;18.00;99.90;;;;;;5075358;28;20209;-81
2022/09/28 10:04:27;;;;;;;1.10;1.10;;;18.20;99.90;;;;;;5075094;28;20248;-80
2022/09/28 10:07:04;;;;;;;1.13;1.13;;;18.50;99.90;;;;;;5075320;28;20205;-82
2022/09/28 10:09:42;;;;;;;0.98;0.98;;;18.90;99.90;;;;;;5074998;28;20254;-82
2022/09/28 10:12:15;;;;;;;1.40;1.30;;;19.40;99.90;;;;;;5075146;28;20209;-81
2022/09/28 10:14:45;;;;;;;1.30;1.30;;;19.50;99.90;;;;;;5075124;28;20205;-81
2022/09/28 10:17:18;;;;;;;1.40;1.30;;;19.60;99.90;;;;;;5075080;28;20228;-80
2022/09/28 10:19:47;;;;;;;1.25;1.23;;;19.60;99.90;;;;;;5074956;28;20205;-82
2022/09/28 10:22:20;;;;;;;0.80;0.80;;;19.40;99.90;;;;;;5074940;28;20208;-82
2022/09/28 10:24:56;;;;;;;0.90;0.90;;;19.40;99.90;;;;;;5074738;28;20229;-82
2022/09/28 10:27:31;;;;;;;1.35;1.00;;;19.30;99.90;;;;;;5074724;28;20228;-82
2022/09/28 10:30:03;;;;;;;1.40;1.00;;;19.40;99.90;;;;;;5074790;28;20211;-82
2022/09/28 10:32:38;;;;;;;1.00;1.00;;;19.40;99.90;;;;;;5074654;28;20220;-82
2022/09/28 10:35:21;;;;;;;1.23;1.10;;;19.30;99.90;;;;;;5074505;28;20224;-82
2022/09/28 10:37:54;;;;;;;1.00;1.00;;;19.30;99.90;;;;;;5074993;28;20228;-81
2022/09/28 10:40:40;;;;;;;0.80;0.80;;;19.30;99.90;;;;;;5074228;28;20211;-82
2022/09/28 10:43:20;;;;;;;1.23;1.08;;;19.40;99.90;;;;;;5074279;28;20224;-82
2022/09/28 10:45:59;;;;;;;1.20;1.15;;;19.50;99.90;;;;;;5074832;28;20228;-82
2022/09/28 10:48:28;;;;;;;0.70;0.70;;;19.60;99.90;;;;;;5074504;28;20201;-82
2022/09/28 10:51:02;;;;;;;0.80;0.80;;;19.60;99.90;;;;;;5074684;28;20264;-82
2022/09/28 10:53:31;;;;;;;0.70;0.68;;;19.60;99.90;;;;;;5074482;28;20209;-82
2022/09/28 10:56:06;;;;;;;1.85;0.82;;;19.50;99.90;;;;;;5074559;28;20244;-81
2022/09/28 10:58:39;;;;;;;0.70;0.70;;;19.70;99.90;;;;;;5073907;28;20225;-83
2022/09/28 11:01:10;;;;;;;0.75;0.75;;;19.90;99.90;;;;;;5074070;28;20205;-80
2022/09/28 11:03:50;;;;;;;0.70;0.70;;;19.90;99.90;;;;;;5074666;28;20193;-80
2022/09/28 11:06:26;;;;;;;0.52;0.52;;;19.80;99.90;;;;;;5074391;28;20229;-80
2022/09/28 11:09:00;;;;;;;0.43;0.43;;;19.70;99.90;;;;;;5073904;28;20196;-81
2022/09/28 11:11:30;;;;;;;0.70;0.70;;;19.60;99.90;;;;;;5073290;28;20217;-80
2022/09/28 11:14:02;;;;;;;2.25;1.27;;;19.70;99.90;;;;;;5074079;28;20209;-80
2022/09/28 11:16:36;;;;;;;0.63;0.63;;;19.70;99.90;;;;;;5073700;28;20221;-80
2022/09/28 11:19:26;;;;;;;0.60;0.60;;;19.60;99.90;;;;;;5073485;28;20255;-80
2022/09/28 11:21:54;;;;;;;1.30;1.08;;;19.50;99.90;;;;;;5073744;28;20236;-80
2022/09/28 11:24:24;;;;;;;1.50;1.40;;;19.50;99.90;;;;;;5073568;28;20212;-80
2022/09/28 11:26:59;;;;;;;2.40;1.65;;;19.20;99.90;;;;;;5073474;28;20307;-80
2022/09/28 11:29:37;;;;;;;3.63;1.95;;;19.10;99.90;;;;;;5073854;28;20208;-80
2022/09/28 11:32:06;;;;;;;1.30;1.20;;;19.10;99.90;;;;;;5074011;28;20227;-80
2022/09/28 11:34:45;;;;;;;1.52;1.42;;;19.20;99.90;;;;;;5073339;28;20223;-80
2022/09/28 11:37:44;;;;;;;1.38;1.25;;;19.10;99.90;;;;;;5073424;28;20236;-81
2022/09/28 11:40:28;;;;;;;1.88;1.00;;;18.80;99.90;;;;;;5073092;28;20205;-80
2022/09/28 11:43:08;;;;;;;0.45;0.45;;;18.90;99.90;;;;;;5073297;28;20209;-80
2022/09/28 11:45:49;;;;;;;1.30;0.65;;;19.30;99.90;;;;;;5073495;28;20271;-80
2022/09/28 11:48:22;;;;;;;0.80;0.80;;;19.60;99.90;;;;;;5073114;28;20212;-80
2022/09/28 11:50:55;;;;;;;0.77;0.77;;;19.40;99.90;;;;;;5073315;28;20209;-81
2022/09/28 11:53:30;;;;;;;0.80;0.80;;;19.50;99.90;;;;;;5073195;28;20295;-81
2022/09/28 11:56:07;;;;;;;0.65;0.65;;;19.50;99.90;;;;;;5073065;28;20236;-80
2022/09/28 11:58:41;;;;;;;0.68;0.68;;;19.20;99.90;;;;;;5073116;28;20259;-81
2022/09/28 12:01:19;;;;;;;0.95;0.95;;;19.20;99.90;;;;;;5073404;28;20215;-81
2022/09/28 12:03:51;;;;;;;0.70;0.70;;;19.10;99.90;;;;;;5072888;28;20213;-80
2022/09/28 12:06:25;;;;;;;0.80;0.77;;;18.80;99.90;;;;;;5073410;28;20232;-80
2022/09/28 12:08:57;;;;;;;0.80;0.70;;;19.00;99.90;;;;;;5073054;28;20201;-81
2022/09/28 12:11:31;;;;;;;0.90;0.90;;;19.10;99.90;;;;;;5072928;28;20215;-81
2022/09/28 12:14:03;;;;;;;1.10;1.00;;;19.30;99.90;;;;;;5073095;28;20201;-81
2022/09/28 12:16:36;;;;;;;0.93;0.90;;;19.30;99.90;;;;;;5072914;28;20251;-81
2022/09/28 12:19:31;;;;;;;1.75;0.93;;;19.40;99.90;;;;;;5072397;28;20221;-81
2022/09/28 12:22:04;;;;;;;0.77;0.77;;;19.20;99.90;;;;;;5072634;28;20204;-81
2022/09/28 12:24:37;;;;;;;1.17;0.90;;;19.50;99.90;;;;;;5072672;28;20213;-81
2022/09/28 12:27:14;;;;;;;0.90;0.90;;;19.40;99.90;;;;;;5072794;28;20209;-81
2022/09/28 12:29:50;;;;;;;0.75;0.75;;;19.10;99.90;;;;;;5072700;28;20204;-81
2022/09/28 12:32:27;;;;;;;3.45;1.30;;;18.90;99.90;;;;;;5072799;28;20215;-81
2022/09/28 12:34:57;;;;;;;3.30;0.95;;;18.80;99.90;;;;;;5072640;28;20233;-81
2022/09/28 12:37:41;;;;;;;3.03;1.33;;;19.00;99.90;;;;;;5072714;28;20236;-80
2022/09/28 12:40:35;;;;;;;1.52;1.30;;;19.30;99.90;;;;;;5072448;28;20225;-80
2022/09/28 12:43:29;;;;;;;0.95;0.95;;;19.80;99.90;;;;;;5072056;28;20215;-80
2022/09/28 12:46:21;;;;;;;2.90;1.50;;;19.90;99.90;;;;;;5072475;28;20231;-81
2022/09/28 12:49:12;;;;;;;0.88;0.88;;;20.00;99.90;;;;;;5072540;28;20261;-80
2022/09/28 12:52:09;;;;;;;0.75;0.75;;;19.90;99.90;;;;;;5072318;28;20251;-81
2022/09/28 12:55:08;;;;;;;0.85;0.85;;;19.90;99.90;;;;;;5072492;28;20208;-81
2022/09/28 12:57:46;;;;;;;0.95;0.93;;;19.90;99.90;;;;;;5071507;28;20201;-81
2022/09/28 13:00:17;;;;;;;1.67;0.98;;;19.90;99.90;;;;;;5072198;28;20236;-81
2022/09/28 13:03:25;;;;;;;1.40;1.25;;;19.80;99.90;;;;;;5072583;28;20220;-81
2022/09/28 13:06:36;;;;;;;0.80;0.80;;;20.00;99.90;;;;;;5072693;28;20225;-82
2022/09/28 13:09:20;;;;;;;1.20;0.90;;;20.30;99.90;;;;;;5030196;28;20217;-81
2022/09/28 13:12:04;;;;;;;1.55;1.10;;;20.10;99.90;;;;;;5070932;28;20205;-81
2022/09/28 13:15:05;;;;;;;1.30;1.20;;;19.90;99.90;;;;;;5072558;28;20209;-81
2022/09/28 13:17:42;;;;;;;1.48;1.38;;;19.90;99.90;;;;;;5072214;28;20209;-81
2022/09/28 13:20:22;;;;;;;3.22;1.00;;;20.30;99.90;;;;;;5071942;28;20228;-81
2022/09/28 13:22:57;;;;;;;1.10;0.90;;;20.40;99.90;;;;;;5072133;28;20215;-81
2022/09/28 13:25:29;;;;;;;1.80;1.60;;;20.40;99.90;;;;;;5071798;28;20236;-81
2022/09/28 13:28:02;;;;;;;1.92;1.25;;;20.50;99.90;;;;;;5072378;28;20208;-81
2022/09/28 13:30:32;;;;;;;6.90;1.90;;;20.70;99.90;;;;;;5072002;28;20201;-82
2022/09/28 13:33:03;;;;;;;2.83;1.35;;;20.90;99.90;;;;;;5072327;28;20209;-81
2022/09/28 13:35:33;;;;;;;1.27;1.17;;;20.80;99.90;;;;;;5075679;28;20236;-81
2022/09/28 13:38:30;;;;;;;2.10;1.25;;;20.80;99.90;;;;;;5075733;28;20213;-81
2022/09/28 13:41:14;;;;;;;1.42;1.30;;;20.70;99.90;;;;;;5060909;28;20205;-81